DFW Airport, Texas
Current Conditions -  °F | °C
As of 8:53 AM on Friday 19 Dec 2014 (Local Time) from KDFW Reporting Station
Overcast Overcast  
Wind Chill: 41°   Ceiling: 500
Heat Index: 46°   Visibility: 8mi
Dew Point: 44°   Wind: 12mph
Humidity: 93%   Direction: 10°N
Pressure: 30.18"   Gusts: NA
Location:  32.9°N, 97.03°W
Report Text: KDFW 191453Z 01010KT 8SM OVC005 08/07 A3018 RMK AO2 SLP220 60003 T00780067 51011
Loading
Personal Weather Stations






























Interactive Weather Map New forecast layout! Learn more

10-Day Weather Forecast

Advertisements
Track Severe Weather on mobile